createdAt,value
2018-09-22T00:00:38.090Z,2.20
2018-09-22T00:03:07.038Z,2.40
2018-09-22T00:05:35.761Z,2.33
2018-09-22T00:08:04.472Z,2.40
2018-09-22T00:10:33.254Z,2.23
2018-09-22T00:13:01.930Z,2.27
2018-09-22T00:15:30.306Z,2.27
2018-09-22T00:17:59.036Z,2.67
2018-09-22T00:20:27.353Z,3.23
2018-09-22T00:22:56.033Z,2.50
2018-09-22T00:25:24.708Z,1.90
2018-09-22T00:27:53.365Z,2.73
2018-09-22T00:30:22.670Z,2.90
2018-09-22T00:32:51.027Z,2.40
2018-09-22T00:35:19.737Z,2.40
2018-09-22T00:37:48.425Z,2.27
2018-09-22T00:40:17.117Z,2.30
2018-09-22T00:42:45.833Z,2.83
2018-09-22T00:45:14.479Z,2.27
2018-09-22T00:47:42.783Z,2.50
2018-09-22T00:50:11.473Z,2.30
2018-09-22T00:52:39.815Z,2.57
2018-09-22T00:55:08.612Z,2.63
2018-09-22T00:57:37.365Z,2.10
2018-09-22T01:00:05.906Z,2.53
2018-09-22T01:02:34.186Z,2.30
2018-09-22T01:05:02.530Z,2.23
2018-09-22T01:07:31.228Z,2.30
2018-09-22T01:09:59.620Z,2.43
2018-09-22T01:12:27.919Z,2.47
2018-09-22T01:14:56.595Z,2.20
2018-09-22T01:17:24.929Z,2.17
2018-09-22T01:19:53.632Z,2.87
2018-09-22T01:22:21.937Z,2.20
2018-09-22T01:24:50.248Z,2.53
2018-09-22T01:27:19.054Z,2.77
2018-09-22T01:29:47.781Z,2.10
2018-09-22T01:32:16.510Z,2.63
2018-09-22T01:34:45.183Z,2.20
2018-09-22T01:37:13.548Z,2.57
2018-09-22T01:39:42.214Z,2.23
2018-09-22T01:42:10.554Z,2.13
2018-09-22T01:44:39.271Z,2.70
2018-09-22T01:47:08.259Z,2.33
2018-09-22T01:49:36.885Z,3.87
2018-09-22T01:52:05.241Z,2.70
2018-09-22T01:54:33.863Z,2.43
2018-09-22T01:57:02.517Z,2.63
2018-09-22T01:59:30.826Z,2.20
2018-09-22T02:02:00.017Z,2.37
2018-09-22T02:04:28.677Z,2.17
2018-09-22T02:06:57.348Z,2.10
2018-09-22T02:09:26.029Z,2.60
2018-09-22T02:11:54.703Z,2.97
2018-09-22T02:14:23.028Z,2.83
2018-09-22T02:16:51.722Z,2.80
2018-09-22T02:19:20.403Z,2.60
2018-09-22T02:21:48.722Z,2.17
2018-09-22T02:24:16.992Z,2.10
2018-09-22T02:26:45.645Z,2.40
2018-09-22T02:29:14.009Z,2.23
2018-09-22T02:31:42.648Z,2.40
2018-09-22T02:34:11.400Z,2.23
2018-09-22T02:36:40.525Z,2.47
2018-09-22T02:39:10.389Z,2.10
2018-09-22T02:41:39.069Z,2.40
2018-09-22T02:44:07.872Z,2.30
2018-09-22T02:46:36.567Z,2.17
2018-09-22T02:49:05.254Z,2.20
2018-09-22T02:51:33.547Z,2.20
2018-09-22T02:54:02.215Z,2.47
2018-09-22T02:56:30.903Z,2.47
2018-09-22T02:58:59.583Z,2.27
2018-09-22T03:01:28.329Z,2.33
2018-09-22T03:03:56.665Z,2.00
2018-09-22T03:06:25.345Z,2.57
2018-09-22T03:08:53.776Z,2.60
2018-09-22T03:11:22.079Z,2.20
2018-09-22T03:13:50.404Z,2.20
2018-09-22T03:16:19.104Z,2.13
2018-09-22T03:18:47.807Z,3.13
2018-09-22T03:21:16.545Z,2.50
2018-09-22T03:23:45.202Z,2.83
2018-09-22T03:26:13.874Z,2.30
2018-09-22T03:28:42.517Z,3.23
2018-09-22T03:31:11.225Z,2.97
2018-09-22T03:33:40.054Z,2.40
2018-09-22T03:36:08.789Z,2.43
2018-09-22T03:38:37.442Z,2.90
2018-09-22T03:41:06.376Z,2.87
2018-09-22T03:43:35.042Z,2.47
2018-09-22T03:46:03.361Z,2.60
2018-09-22T03:48:32.049Z,2.90
2018-09-22T03:51:01.406Z,2.50
2018-09-22T03:53:30.181Z,2.67
2018-09-22T03:55:58.903Z,2.40
2018-09-22T03:58:27.565Z,3.43
2018-09-22T04:00:56.257Z,2.67
2018-09-22T04:03:24.942Z,2.50
2018-09-22T04:05:53.634Z,2.73
2018-09-22T04:08:22.264Z,2.67
2018-09-22T04:10:50.551Z,2.57
2018-09-22T04:13:19.276Z,2.77
2018-09-22T04:15:48.069Z,2.60
2018-09-22T04:18:16.727Z,2.97
2018-09-22T04:20:45.565Z,2.30
2018-09-22T04:23:14.313Z,3.00
2018-09-22T04:25:42.626Z,3.00
2018-09-22T04:28:11.268Z,2.50
2018-09-22T04:30:39.953Z,2.50
2018-09-22T04:33:14.958Z,2.60
2018-09-22T04:35:43.730Z,2.73
2018-09-22T04:38:12.073Z,2.80
2018-09-22T04:40:40.832Z,2.60
2018-09-22T04:43:09.186Z,2.30
2018-09-22T04:45:37.878Z,2.40
2018-09-22T04:48:06.732Z,2.40
2018-09-22T04:50:35.409Z,2.57
2018-09-22T04:53:04.048Z,2.70
2018-09-22T04:55:32.717Z,2.60
2018-09-22T04:58:01.376Z,2.77
2018-09-22T05:00:30.053Z,2.90
2018-09-22T05:02:58.772Z,3.07
2018-09-22T05:05:27.537Z,2.97
2018-09-22T05:07:56.229Z,3.10
2018-09-22T05:10:24.966Z,3.23
2018-09-22T05:12:53.707Z,3.50
2018-09-22T05:15:22.061Z,3.63
2018-09-22T05:17:50.770Z,3.90
2018-09-22T05:20:19.486Z,3.93
2018-09-22T05:22:48.167Z,3.77
2018-09-22T05:25:16.874Z,4.27
2018-09-22T05:27:45.178Z,3.90
2018-09-22T05:30:13.829Z,4.10
2018-09-22T05:32:42.565Z,4.00
2018-09-22T05:35:11.296Z,4.20
2018-09-22T05:37:39.607Z,3.60
2018-09-22T05:40:08.335Z,3.73
2018-09-22T05:42:37.077Z,4.17
2018-09-22T05:45:06.496Z,3.97
2018-09-22T05:47:35.146Z,3.90
2018-09-22T05:50:03.408Z,4.23
2018-09-22T05:52:32.168Z,4.20
2018-09-22T05:55:00.447Z,4.10
2018-09-22T05:57:29.233Z,3.83
2018-09-22T05:59:58.007Z,4.00
2018-09-22T06:02:26.736Z,3.63
2018-09-22T06:04:55.450Z,3.33
2018-09-22T06:07:24.119Z,3.50
2018-09-22T06:09:52.480Z,3.13
2018-09-22T06:12:21.226Z,3.00
2018-09-22T06:14:49.917Z,3.20
2018-09-22T06:17:18.604Z,2.73
2018-09-22T06:19:46.913Z,2.53
2018-09-22T06:22:15.614Z,3.17
2018-09-22T06:24:43.923Z,2.80
2018-09-22T06:27:12.331Z,2.73
2018-09-22T06:29:41.013Z,3.13
2018-09-22T06:32:09.721Z,3.23
2018-09-22T06:34:38.757Z,3.27
2018-09-22T06:37:07.092Z,2.97
2018-09-22T06:39:35.848Z,2.77
2018-09-22T06:42:04.568Z,2.83
2018-09-22T06:44:33.200Z,3.13
2018-09-22T06:47:02.554Z,2.60
2018-09-22T06:49:31.195Z,2.50
2018-09-22T06:51:59.656Z,3.17
2018-09-22T06:54:28.335Z,2.53
2018-09-22T06:56:57.108Z,2.70
2018-09-22T06:59:25.792Z,2.47
2018-09-22T07:01:54.485Z,3.10
2018-09-22T07:04:22.856Z,2.57
2018-09-22T07:06:51.573Z,2.63
2018-09-22T07:09:20.264Z,2.27
2018-09-22T07:11:48.947Z,3.03
2018-09-22T07:14:17.609Z,2.57
2018-09-22T07:16:46.376Z,2.57
2018-09-22T07:19:14.716Z,2.93
2018-09-22T07:21:48.717Z,2.63
2018-09-22T07:24:17.071Z,2.07
2018-09-22T07:26:45.785Z,2.37
2018-09-22T07:29:14.483Z,2.53
2018-09-22T07:31:43.238Z,2.73
2018-09-22T07:34:11.575Z,3.17
2018-09-22T07:36:40.316Z,1.97
2018-09-22T07:39:10.152Z,3.93
2018-09-22T07:41:38.936Z,2.37
2018-09-22T07:44:07.346Z,2.10
2018-09-22T07:46:36.049Z,3.03
2018-09-22T07:49:04.757Z,2.80
2018-09-22T07:51:33.131Z,3.10
2018-09-22T07:54:01.921Z,3.30
2018-09-22T07:56:30.655Z,3.07
2018-09-22T07:58:59.347Z,2.47
2018-09-22T08:01:27.713Z,2.67
2018-09-22T08:03:56.369Z,2.30
2018-09-22T08:06:25.031Z,2.07
2018-09-22T08:08:53.983Z,2.47
2018-09-22T08:11:22.770Z,2.50
2018-09-22T08:13:51.517Z,2.87
2018-09-22T08:16:20.225Z,2.70
2018-09-22T08:18:48.926Z,2.60
2018-09-22T08:21:17.676Z,2.83
2018-09-22T08:23:46.403Z,2.80
2018-09-22T08:26:15.103Z,3.63
2018-09-22T08:28:43.780Z,2.57
2018-09-22T08:31:12.504Z,3.10
2018-09-22T08:33:41.260Z,2.87
2018-09-22T08:36:10.005Z,3.30
2018-09-22T08:38:38.720Z,2.83
2018-09-22T08:41:07.609Z,3.67
2018-09-22T08:43:36.326Z,2.27
2018-09-22T08:46:05.001Z,3.07
2018-09-22T08:48:33.703Z,3.10
2018-09-22T08:51:02.455Z,2.73
2018-09-22T08:53:31.099Z,2.80
2018-09-22T08:55:59.861Z,2.67
2018-09-22T08:58:28.584Z,2.50
2018-09-22T09:00:57.552Z,2.63
2018-09-22T09:03:26.298Z,3.00
2018-09-22T09:05:55.058Z,2.67
2018-09-22T09:08:23.748Z,3.00
2018-09-22T09:10:52.445Z,2.70
2018-09-22T09:13:21.262Z,2.47
2018-09-22T09:15:49.921Z,3.13
2018-09-22T09:18:18.621Z,2.97
2018-09-22T09:20:47.337Z,2.57
2018-09-22T09:23:16.053Z,3.33
2018-09-22T09:25:44.793Z,3.03
2018-09-22T09:28:13.494Z,3.00
2018-09-22T09:30:42.181Z,2.90
2018-09-22T09:33:10.852Z,2.90
2018-09-22T09:35:39.548Z,2.50
2018-09-22T09:38:08.279Z,2.80
2018-09-22T09:40:38.019Z,3.07
2018-09-22T09:43:06.825Z,3.10
2018-09-22T09:45:35.491Z,2.60
2018-09-22T09:48:04.231Z,2.80
2018-09-22T09:50:32.919Z,2.70
2018-09-22T09:53:01.592Z,2.97
2018-09-22T09:55:30.281Z,2.77
2018-09-22T09:57:58.993Z,2.83
2018-09-22T10:00:32.902Z,2.97
2018-09-22T10:03:01.550Z,3.13
2018-09-22T10:05:30.199Z,3.17
2018-09-22T10:07:58.941Z,2.60
2018-09-22T10:10:27.633Z,2.17
2018-09-22T10:12:56.341Z,2.60
2018-09-22T10:15:25.077Z,2.37
2018-09-22T10:17:53.735Z,2.93
2018-09-22T10:20:22.419Z,2.57
2018-09-22T10:22:51.185Z,2.80
2018-09-22T10:25:19.941Z,3.27
2018-09-22T10:27:48.627Z,2.90
2018-09-22T10:30:17.333Z,3.10
2018-09-22T10:32:46.040Z,3.13
2018-09-22T10:35:15.005Z,3.20
2018-09-22T10:37:43.713Z,3.13
2018-09-22T10:40:12.412Z,3.33
2018-09-22T10:42:41.190Z,3.70
2018-09-22T10:45:09.877Z,3.70
2018-09-22T10:47:38.537Z,3.33
2018-09-22T10:50:07.347Z,3.50
2018-09-22T10:52:36.054Z,4.20
2018-09-22T10:55:04.797Z,3.70
2018-09-22T10:57:33.524Z,3.50
2018-09-22T11:00:02.202Z,3.60
2018-09-22T11:02:30.876Z,3.70
2018-09-22T11:04:59.550Z,3.37
2018-09-22T11:07:28.269Z,3.30
2018-09-22T11:09:56.916Z,3.70
2018-09-22T11:12:25.613Z,3.30
2018-09-22T11:14:54.294Z,2.83
2018-09-22T11:17:22.944Z,3.30
2018-09-22T11:19:51.628Z,2.83
2018-09-22T11:22:20.496Z,2.80
2018-09-22T11:24:49.207Z,2.93
2018-09-22T11:27:17.961Z,3.47
2018-09-22T11:29:46.720Z,3.00
2018-09-22T11:32:15.848Z,3.73
2018-09-22T11:34:44.195Z,2.97
2018-09-22T11:37:12.949Z,3.03
2018-09-22T11:39:41.696Z,3.17
2018-09-22T11:42:10.356Z,3.37
2018-09-22T11:44:39.055Z,2.93
2018-09-22T11:47:07.854Z,3.80
2018-09-22T11:49:36.573Z,2.97
2018-09-22T11:52:05.414Z,3.27
2018-09-22T11:54:34.154Z,2.80
2018-09-22T11:57:02.866Z,3.60
2018-09-22T11:59:31.600Z,3.17
2018-09-22T12:02:00.365Z,3.17
2018-09-22T12:04:29.061Z,2.93
2018-09-22T12:06:57.740Z,2.87
2018-09-22T12:09:26.465Z,2.47
2018-09-22T12:11:55.168Z,2.83
2018-09-22T12:14:23.847Z,2.57
2018-09-22T12:16:52.505Z,2.50
2018-09-22T12:19:21.228Z,2.53
2018-09-22T12:21:49.909Z,2.60
2018-09-22T12:24:18.623Z,2.40
2018-09-22T12:26:47.327Z,2.00
2018-09-22T12:29:16.031Z,2.20
2018-09-22T12:31:44.767Z,1.93
2018-09-22T12:34:13.397Z,2.07
2018-09-22T12:36:42.104Z,2.60
2018-09-22T12:39:12.220Z,2.40
2018-09-22T12:41:41.307Z,1.70
2018-09-22T12:44:10.093Z,1.53
2018-09-22T12:46:38.844Z,2.13
2018-09-22T12:49:07.563Z,1.67
2018-09-22T12:51:36.261Z,1.90
2018-09-22T12:54:04.943Z,1.40
2018-09-22T12:56:34.090Z,1.90
2018-09-22T12:59:02.786Z,1.83
2018-09-22T13:01:31.497Z,2.60
2018-09-22T13:04:00.160Z,1.87
2018-09-22T13:06:28.875Z,1.47
2018-09-22T13:08:57.537Z,1.60
2018-09-22T13:11:26.251Z,1.50
2018-09-22T13:13:54.950Z,1.80
2018-09-22T13:16:23.672Z,1.50
2018-09-22T13:18:52.332Z,1.80
2018-09-22T13:21:21.004Z,1.30
2018-09-22T13:23:49.653Z,1.70
2018-09-22T13:26:18.383Z,1.73
2018-09-22T13:28:47.078Z,1.60
2018-09-22T13:31:15.991Z,2.30
2018-09-22T13:33:44.649Z,1.87
2018-09-22T13:36:13.304Z,1.77
2018-09-22T13:38:42.064Z,1.70
2018-09-22T13:41:10.752Z,3.23
2018-09-22T13:43:39.478Z,1.73
2018-09-22T13:46:08.188Z,1.60
2018-09-22T13:48:36.854Z,1.70
2018-09-22T13:51:05.569Z,1.53
2018-09-22T13:53:34.272Z,1.60
2018-09-22T13:56:02.979Z,1.60
2018-09-22T13:58:31.712Z,1.63
2018-09-22T14:01:00.409Z,1.70
2018-09-22T14:03:29.100Z,1.20
2018-09-22T14:05:57.821Z,0.73
2018-09-22T14:08:26.533Z,0.80
2018-09-22T14:10:55.156Z,0.87
2018-09-22T14:13:23.865Z,0.90
2018-09-22T14:15:52.545Z,0.97
2018-09-22T14:18:21.188Z,0.80
2018-09-22T14:20:49.900Z,1.07
2018-09-22T14:23:18.733Z,0.50
2018-09-22T14:25:47.671Z,0.80
2018-09-22T14:28:16.359Z,0.77
2018-09-22T14:30:45.063Z,0.80
2018-09-22T14:33:13.753Z,0.70
2018-09-22T14:35:42.475Z,1.10
2018-09-22T14:38:10.760Z,1.20
2018-09-22T14:40:39.419Z,1.40
2018-09-22T14:43:07.713Z,1.37
2018-09-22T14:45:36.396Z,1.70
2018-09-22T14:48:04.754Z,1.00
2018-09-22T14:50:33.466Z,1.23
2018-09-22T14:53:02.136Z,1.10
2018-09-22T14:55:30.422Z,1.00
2018-09-22T14:57:59.136Z,1.50
2018-09-22T15:00:27.860Z,1.80
2018-09-22T15:02:56.538Z,1.17
2018-09-22T15:05:25.228Z,1.20
2018-09-22T15:07:53.560Z,1.80
2018-09-22T15:10:22.280Z,1.70
2018-09-22T15:12:50.990Z,1.80
2018-09-22T15:15:19.663Z,1.97
2018-09-22T15:17:48.359Z,1.70
2018-09-22T15:20:17.512Z,2.50
2018-09-22T15:22:46.226Z,2.00
2018-09-22T15:25:14.927Z,2.50
2018-09-22T15:27:43.268Z,2.30
2018-09-22T15:30:11.983Z,2.30
2018-09-22T15:32:40.384Z,2.17
2018-09-22T15:35:09.467Z,2.40
2018-09-22T15:37:38.826Z,2.50
2018-09-22T15:40:07.843Z,2.13
2018-09-22T15:42:37.126Z,2.00
2018-09-22T15:45:06.589Z,2.30
2018-09-22T15:47:35.247Z,2.67
2018-09-22T15:50:04.032Z,2.80
2018-09-22T15:52:32.729Z,3.90
2018-09-22T15:55:01.434Z,2.83
2018-09-22T15:57:29.783Z,2.60
2018-09-22T15:59:58.453Z,2.50
2018-09-22T16:02:27.101Z,2.80
2018-09-22T16:04:55.823Z,2.90
2018-09-22T16:07:24.148Z,2.43
2018-09-22T16:09:52.875Z,2.70
2018-09-22T16:12:21.621Z,2.67
2018-09-22T16:14:50.657Z,2.30
2018-09-22T16:17:19.335Z,2.50
2018-09-22T16:19:48.030Z,2.30
2018-09-22T16:22:16.375Z,2.10
2018-09-22T16:24:45.060Z,2.00
2018-09-22T16:27:13.504Z,2.00
2018-09-22T16:29:42.169Z,1.87
2018-09-22T16:32:10.838Z,1.90
2018-09-22T16:34:39.502Z,1.70
2018-09-22T16:37:08.176Z,1.90
2018-09-22T16:39:36.501Z,2.00
2018-09-22T16:42:05.281Z,2.00
2018-09-22T16:44:33.566Z,2.00
2018-09-22T16:47:02.248Z,1.83
2018-09-22T16:49:30.570Z,2.00
2018-09-22T16:51:59.359Z,2.10
2018-09-22T16:54:28.012Z,2.10
2018-09-22T16:56:56.749Z,2.00
2018-09-22T16:59:25.389Z,1.87
2018-09-22T17:01:54.062Z,1.93
2018-09-22T17:04:22.772Z,2.00
2018-09-22T17:06:51.432Z,1.60
2018-09-22T17:09:20.155Z,1.80
2018-09-22T17:11:48.824Z,2.00
2018-09-22T17:14:17.549Z,1.57
2018-09-22T17:16:46.246Z,1.90
2018-09-22T17:19:14.957Z,1.40
2018-09-22T17:21:43.660Z,2.10
2018-09-22T17:24:12.367Z,1.50
2018-09-22T17:26:40.673Z,1.50
2018-09-22T17:29:09.503Z,1.30
2018-09-22T17:31:38.279Z,1.90
2018-09-22T17:34:06.952Z,1.73
2018-09-22T17:36:35.656Z,1.80
2018-09-22T17:39:05.930Z,1.60
2018-09-22T17:41:34.569Z,1.73
2018-09-22T17:44:02.934Z,1.93
2018-09-22T17:46:31.635Z,2.00
2018-09-22T17:49:00.451Z,2.10
2018-09-22T17:51:29.156Z,1.70
2018-09-22T17:53:57.809Z,1.80
2018-09-22T17:56:26.117Z,1.97
2018-09-22T17:58:54.385Z,2.10
2018-09-22T18:01:22.685Z,2.30
2018-09-22T18:03:51.351Z,2.23
2018-09-22T18:06:19.779Z,2.40
2018-09-22T18:15:46.207Z,2.80
2018-09-22T18:18:14.498Z,3.07
2018-09-22T18:20:43.152Z,3.57
2018-09-22T18:23:11.855Z,3.57
2018-09-22T18:25:40.579Z,3.60
2018-09-22T18:28:09.245Z,3.57
2018-09-22T18:30:37.559Z,3.10
2018-09-22T18:33:06.251Z,3.10
2018-09-22T18:35:34.932Z,3.20
2018-09-22T18:38:03.611Z,3.20
2018-09-22T18:40:32.255Z,2.97
2018-09-22T18:43:00.609Z,3.90
2018-09-22T18:45:29.329Z,3.40
2018-09-22T18:47:58.012Z,3.20
2018-09-22T18:50:26.736Z,3.20
2018-09-22T18:52:55.033Z,3.43
2018-09-22T18:55:23.328Z,3.33
2018-09-22T18:57:51.988Z,3.60
2018-09-22T19:00:20.630Z,3.30
2018-09-22T19:02:49.299Z,3.20
2018-09-22T19:05:17.982Z,3.10
2018-09-22T19:07:46.654Z,3.20
2018-09-22T19:10:15.359Z,4.37
2018-09-22T19:12:44.163Z,3.23
2018-09-22T19:15:18.430Z,3.00
2018-09-22T19:17:50.706Z,3.20
2018-09-22T19:20:22.521Z,3.27
2018-09-22T19:22:55.688Z,3.60
2018-09-22T19:25:26.412Z,3.43
2018-09-22T19:28:13.930Z,3.87
2018-09-22T19:30:49.141Z,4.07
2018-09-22T19:33:24.706Z,4.73
2018-09-22T19:36:01.575Z,4.20
2018-09-22T19:38:40.197Z,4.80
2018-09-22T19:41:18.426Z,5.47
2018-09-22T19:43:51.169Z,5.57
2018-09-22T19:46:24.203Z,5.27
2018-09-22T19:48:58.535Z,5.57
2018-09-22T19:51:29.776Z,5.90
2018-09-22T19:53:59.537Z,6.53
2018-09-22T19:56:27.864Z,6.33
2018-09-22T19:58:56.531Z,6.50
2018-09-22T20:01:25.187Z,7.10
2018-09-22T20:03:53.800Z,7.23
2018-09-22T20:06:28.964Z,7.20
2018-09-22T20:08:57.649Z,6.77
2018-09-22T20:11:26.356Z,7.10
2018-09-22T20:13:54.970Z,7.27
2018-09-22T20:16:23.638Z,7.00
2018-09-22T20:18:52.312Z,7.17
2018-09-22T20:21:20.624Z,7.43
2018-09-22T20:23:49.239Z,7.10
2018-09-22T20:26:17.556Z,6.70
2018-09-22T20:28:46.259Z,7.40
2018-09-22T20:31:14.924Z,7.23
2018-09-22T20:33:43.602Z,7.20
2018-09-22T20:36:12.397Z,6.90
2018-09-22T20:38:41.019Z,6.83
2018-09-22T20:41:09.326Z,6.63
2018-09-22T20:43:38.009Z,7.00
2018-09-22T20:46:06.792Z,6.67
2018-09-22T20:48:35.445Z,7.33
2018-09-22T20:51:04.213Z,7.00
2018-09-22T20:53:32.850Z,6.53
2018-09-22T20:56:01.510Z,7.03
2018-09-22T20:58:30.186Z,6.80
2018-09-22T21:00:58.864Z,6.33
2018-09-22T21:03:27.561Z,7.23
2018-09-22T21:05:56.207Z,6.73
2018-09-22T21:08:24.522Z,7.17
2018-09-22T21:10:53.196Z,7.70
2018-09-22T21:13:21.930Z,7.57
2018-09-22T21:15:50.664Z,7.20
2018-09-22T21:18:18.997Z,7.40
2018-09-22T21:20:47.659Z,7.67
2018-09-22T21:23:15.960Z,7.90
2018-09-22T21:25:44.619Z,7.77
2018-09-22T21:28:13.266Z,7.40
2018-09-22T21:30:41.977Z,7.33
2018-09-22T21:33:10.618Z,7.00
2018-09-22T21:35:39.273Z,6.53
2018-09-22T21:38:08.060Z,7.93
2018-09-22T21:40:36.814Z,7.90
2018-09-22T21:43:05.498Z,7.40
2018-09-22T21:45:34.164Z,7.40
2018-09-22T21:48:02.796Z,7.23
2018-09-22T21:50:31.519Z,7.00
2018-09-22T21:52:59.845Z,7.27
2018-09-22T21:55:28.502Z,7.60
2018-09-22T21:57:57.177Z,6.90
2018-09-22T22:00:25.864Z,7.10
2018-09-22T22:02:54.543Z,6.73
2018-09-22T22:05:23.194Z,7.23
2018-09-22T22:07:51.770Z,7.00
2018-09-22T22:10:20.484Z,6.93
2018-09-22T22:12:49.125Z,6.57
2018-09-22T22:15:17.445Z,7.13
2018-09-22T22:20:21.154Z,6.93
2018-09-22T22:22:49.804Z,6.50
2018-09-22T22:25:18.457Z,7.33
2018-09-22T22:27:47.113Z,8.23
2018-09-22T22:30:15.429Z,8.03
2018-09-22T22:32:44.108Z,8.17
2018-09-22T22:35:12.830Z,7.97
2018-09-22T22:37:41.131Z,8.73
2018-09-22T22:40:09.424Z,8.07
2018-09-22T22:42:37.686Z,7.10
2018-09-22T22:45:06.379Z,7.37
2018-09-22T22:47:35.077Z,7.80
2018-09-22T22:50:03.738Z,7.87
2018-09-22T22:52:32.435Z,8.03
2018-09-22T22:55:01.118Z,8.07
2018-09-22T22:57:29.876Z,7.73
2018-09-22T22:59:58.583Z,7.50
2018-09-22T23:02:27.300Z,7.40
2018-09-22T23:04:56.037Z,7.87
2018-09-22T23:07:24.719Z,7.77
2018-09-22T23:09:53.350Z,8.13
2018-09-22T23:12:22.263Z,8.70
2018-09-22T23:14:50.909Z,8.47
2018-09-22T23:17:19.603Z,8.20
2018-09-22T23:19:48.321Z,8.30
2018-09-22T23:22:16.646Z,9.00
2018-09-22T23:24:45.314Z,9.50
2018-09-22T23:27:13.964Z,10.27
2018-09-22T23:29:42.301Z,9.43
2018-09-22T23:32:10.951Z,9.57
2018-09-22T23:34:39.268Z,9.60
2018-09-22T23:37:08.006Z,9.80
2018-09-22T23:39:36.356Z,9.73
2018-09-22T23:42:05.010Z,8.77
2018-09-22T23:44:33.697Z,9.23
2018-09-22T23:47:02.011Z,8.40
2018-09-22T23:49:30.742Z,8.63
2018-09-22T23:51:59.368Z,9.37
2018-09-22T23:54:27.993Z,9.87
2018-09-22T23:56:56.668Z,9.03
2018-09-22T23:59:25.697Z,9.50
